sensor_id;sensor_type;location;lat;lon;timestamp;temperature;humidity
25058;DHT22;13057;50.978;11.034;2023-05-02T00:00:14;12.10;99.90
25058;DHT22;13057;50.978;11.034;2023-05-02T00:02:40;12.10;99.90
25058;DHT22;13057;50.978;11.034;2023-05-02T00:05:06;12.10;99.90
25058;DHT22;13057;50.978;11.034;2023-05-02T00:07:32;12.10;99.90
25058;DHT22;13057;50.978;11.034;2023-05-02T00:09:58;12.10;99.90
25058;DHT22;13057;50.978;11.034;2023-05-02T00:12:27;12.10;99.90
25058;DHT22;13057;50.978;11.034;2023-05-02T00:14:53;12.00;99.90
25058;DHT22;13057;50.978;11.034;2023-05-02T00:17:19;12.00;99.90
25058;DHT22;13057;50.978;11.034;2023-05-02T00:19:46;12.00;99.90
25058;DHT22;13057;50.978;11.034;2023-05-02T00:22:12;12.00;99.90
25058;DHT22;13057;50.978;11.034;2023-05-02T00:24:38;12.00;99.90
25058;DHT22;13057;50.978;11.034;2023-05-02T00:27:04;12.00;99.90
25058;DHT22;13057;50.978;11.034;2023-05-02T00:29:30;11.90;99.90
25058;DHT22;13057;50.978;11.034;2023-05-02T00:31:56;11.90;99.90
25058;DHT22;13057;50.978;11.034;2023-05-02T00:34:23;11.80;99.90
25058;DHT22;13057;50.978;11.034;2023-05-02T00:36:49;11.80;99.90
25058;DHT22;13057;50.978;11.034;2023-05-02T00:39:15;11.80;99.90
25058;DHT22;13057;50.978;11.034;2023-05-02T00:41:41;11.80;99.90
25058;DHT22;13057;50.978;11.034;2023-05-02T00:44:07;11.80;99.90
25058;DHT22;13057;50.978;11.034;2023-05-02T00:46:33;11.80;99.90
25058;DHT22;13057;50.978;11.034;2023-05-02T00:49:00;11.80;99.90
25058;DHT22;13057;50.978;11.034;2023-05-02T00:51:26;11.70;99.90
25058;DHT22;13057;50.978;11.034;2023-05-02T00:53:52;11.80;99.90
25058;DHT22;13057;50.978;11.034;2023-05-02T00:56:18;11.70;99.90
25058;DHT22;13057;50.978;11.034;2023-05-02T00:58:45;11.70;99.90
25058;DHT22;13057;50.978;11.034;2023-05-02T01:01:38;11.70;99.90
25058;DHT22;13057;50.978;11.034;2023-05-02T01:04:22;11.70;99.90
25058;DHT22;13057;50.978;11.034;2023-05-02T01:09:49;11.60;99.90
25058;DHT22;13057;50.978;11.034;2023-05-02T01:12:36;11.60;99.90
25058;DHT22;13057;50.978;11.034;2023-05-02T01:15:10;11.60;99.90
25058;DHT22;13057;50.978;11.034;2023-05-02T01:17:38;11.60;99.90
25058;DHT22;13057;50.978;11.034;2023-05-02T01:20:08;11.60;99.90
25058;DHT22;13057;50.978;11.034;2023-05-02T01:22:37;11.50;99.90
25058;DHT22;13057;50.978;11.034;2023-05-02T01:25:23;11.50;99.90
25058;DHT22;13057;50.978;11.034;2023-05-02T01:28:04;11.50;99.90
25058;DHT22;13057;50.978;11.034;2023-05-02T01:30:36;11.50;99.90
25058;DHT22;13057;50.978;11.034;2023-05-02T01:33:03;11.60;99.90
25058;DHT22;13057;50.978;11.034;2023-05-02T01:35:32;11.60;99.90
25058;DHT22;13057;50.978;11.034;2023-05-02T01:37:59;11.60;99.90
25058;DHT22;13057;50.978;11.034;2023-05-02T01:40:28;11.60;99.90
25058;DHT22;13057;50.978;11.034;2023-05-02T01:42:56;11.50;99.90
25058;DHT22;13057;50.978;11.034;2023-05-02T01:45:22;11.50;99.90
25058;DHT22;13057;50.978;11.034;2023-05-02T01:47:49;11.40;99.90
25058;DHT22;13057;50.978;11.034;2023-05-02T01:50:20;11.50;99.90
25058;DHT22;13057;50.978;11.034;2023-05-02T01:52:50;11.50;99.90
25058;DHT22;13057;50.978;11.034;2023-05-02T01:55:16;11.40;99.90
25058;DHT22;13057;50.978;11.034;2023-05-02T01:57:44;11.40;99.90
25058;DHT22;13057;50.978;11.034;2023-05-02T02:00:12;11.40;99.90
25058;DHT22;13057;50.978;11.034;2023-05-02T02:02:40;11.40;99.90
25058;DHT22;13057;50.978;11.034;2023-05-02T02:05:07;11.50;99.90
25058;DHT22;13057;50.978;11.034;2023-05-02T02:07:34;11.50;99.90
25058;DHT22;13057;50.978;11.034;2023-05-02T02:10:00;11.40;99.90
25058;DHT22;13057;50.978;11.034;2023-05-02T02:12:35;11.50;99.90
25058;DHT22;13057;50.978;11.034;2023-05-02T02:17:45;11.40;99.90
25058;DHT22;13057;50.978;11.034;2023-05-02T02:20:14;11.40;99.90
25058;DHT22;13057;50.978;11.034;2023-05-02T02:22:42;11.40;99.90
25058;DHT22;13057;50.978;11.034;2023-05-02T02:25:15;11.50;99.90
25058;DHT22;13057;50.978;11.034;2023-05-02T02:27:41;11.50;99.90
25058;DHT22;13057;50.978;11.034;2023-05-02T02:30:08;11.50;99.90
25058;DHT22;13057;50.978;11.034;2023-05-02T02:32:34;11.50;99.90
25058;DHT22;13057;50.978;11.034;2023-05-02T02:35:01;11.50;99.90
25058;DHT22;13057;50.978;11.034;2023-05-02T02:37:32;11.50;99.90
25058;DHT22;13057;50.978;11.034;2023-05-02T02:40:11;11.60;99.90
25058;DHT22;13057;50.978;11.034;2023-05-02T02:42:59;11.50;99.90
25058;DHT22;13057;50.978;11.034;2023-05-02T02:45:37;11.60;99.90
25058;DHT22;13057;50.978;11.034;2023-05-02T02:48:18;11.60;99.90
25058;DHT22;13057;50.978;11.034;2023-05-02T02:51:09;11.60;99.90
25058;DHT22;13057;50.978;11.034;2023-05-02T02:53:59;11.60;99.90
25058;DHT22;13057;50.978;11.034;2023-05-02T02:56:33;11.60;99.90
25058;DHT22;13057;50.978;11.034;2023-05-02T02:59:08;11.70;99.90
25058;DHT22;13057;50.978;11.034;2023-05-02T03:01:39;11.70;99.90
25058;DHT22;13057;50.978;11.034;2023-05-02T03:04:07;11.70;99.90
25058;DHT22;13057;50.978;11.034;2023-05-02T03:06:34;11.60;99.90
25058;DHT22;13057;50.978;11.034;2023-05-02T03:09:00;11.70;99.90
25058;DHT22;13057;50.978;11.034;2023-05-02T03:11:26;11.70;99.90
25058;DHT22;13057;50.978;11.034;2023-05-02T03:13:52;11.70;99.90
25058;DHT22;13057;50.978;11.034;2023-05-02T03:16:34;11.70;99.90
25058;DHT22;13057;50.978;11.034;2023-05-02T03:19:01;11.70;99.90
25058;DHT22;13057;50.978;11.034;2023-05-02T03:21:27;11.70;99.90
25058;DHT22;13057;50.978;11.034;2023-05-02T03:23:57;11.80;99.90
25058;DHT22;13057;50.978;11.034;2023-05-02T03:26:23;11.80;99.90
25058;DHT22;13057;50.978;11.034;2023-05-02T03:28:49;11.80;99.90
25058;DHT22;13057;50.978;11.034;2023-05-02T03:31:16;11.80;99.90
25058;DHT22;13057;50.978;11.034;2023-05-02T03:33:41;11.80;99.90
25058;DHT22;13057;50.978;11.034;2023-05-02T03:36:08;11.80;99.90
25058;DHT22;13057;50.978;11.034;2023-05-02T03:38:34;11.90;99.90
25058;DHT22;13057;50.978;11.034;2023-05-02T03:40:59;11.80;99.90
25058;DHT22;13057;50.978;11.034;2023-05-02T03:43:25;11.80;99.90
25058;DHT22;13057;50.978;11.034;2023-05-02T03:45:51;11.80;99.90
25058;DHT22;13057;50.978;11.034;2023-05-02T03:48:17;11.90;99.90
25058;DHT22;13057;50.978;11.034;2023-05-02T03:50:43;11.90;99.90
25058;DHT22;13057;50.978;11.034;2023-05-02T03:53:09;11.90;99.90
25058;DHT22;13057;50.978;11.034;2023-05-02T03:55:39;11.90;99.90
25058;DHT22;13057;50.978;11.034;2023-05-02T03:58:06;11.80;99.90
25058;DHT22;13057;50.978;11.034;2023-05-02T04:00:32;11.90;99.90
25058;DHT22;13057;50.978;11.034;2023-05-02T04:03:00;11.80;99.90
25058;DHT22;13057;50.978;11.034;2023-05-02T04:05:26;11.80;99.90
25058;DHT22;13057;50.978;11.034;2023-05-02T04:07:52;11.80;99.90
25058;DHT22;13057;50.978;11.034;2023-05-02T04:10:17;11.80;99.90
25058;DHT22;13057;50.978;11.034;2023-05-02T04:12:43;11.80;99.90
25058;DHT22;13057;50.978;11.034;2023-05-02T04:15:10;11.80;99.90
25058;DHT22;13057;50.978;11.034;2023-05-02T04:17:36;11.80;99.90
25058;DHT22;13057;50.978;11.034;2023-05-02T04:20:02;11.70;99.90
25058;DHT22;13057;50.978;11.034;2023-05-02T04:22:29;11.80;99.90
25058;DHT22;13057;50.978;11.034;2023-05-02T04:24:56;11.70;99.90
25058;DHT22;13057;50.978;11.034;2023-05-02T04:27:21;11.70;99.90
25058;DHT22;13057;50.978;11.034;2023-05-02T04:29:48;11.70;99.90
25058;DHT22;13057;50.978;11.034;2023-05-02T04:32:14;11.70;99.90
25058;DHT22;13057;50.978;11.034;2023-05-02T04:34:41;11.60;99.90
25058;DHT22;13057;50.978;11.034;2023-05-02T04:37:07;11.60;99.90
25058;DHT22;13057;50.978;11.034;2023-05-02T04:39:33;11.70;99.90
25058;DHT22;13057;50.978;11.034;2023-05-02T04:41:59;11.70;99.90
25058;DHT22;13057;50.978;11.034;2023-05-02T04:44:25;11.70;99.90
25058;DHT22;13057;50.978;11.034;2023-05-02T04:46:51;11.70;99.90
25058;DHT22;13057;50.978;11.034;2023-05-02T04:49:16;11.70;99.90
25058;DHT22;13057;50.978;11.034;2023-05-02T04:51:43;11.70;99.90
25058;DHT22;13057;50.978;11.034;2023-05-02T04:54:09;11.70;99.90
25058;DHT22;13057;50.978;11.034;2023-05-02T04:56:35;11.80;99.90
25058;DHT22;13057;50.978;11.034;2023-05-02T04:59:01;11.80;99.90
25058;DHT22;13057;50.978;11.034;2023-05-02T05:01:27;11.70;99.90
25058;DHT22;13057;50.978;11.034;2023-05-02T05:03:54;11.80;99.90
25058;DHT22;13057;50.978;11.034;2023-05-02T05:06:20;11.80;99.90
25058;DHT22;13057;50.978;11.034;2023-05-02T05:08:46;11.80;99.90
25058;DHT22;13057;50.978;11.034;2023-05-02T05:11:12;11.90;99.90
25058;DHT22;13057;50.978;11.034;2023-05-02T05:13:38;11.90;99.90
25058;DHT22;13057;50.978;11.034;2023-05-02T05:16:04;11.90;99.90
25058;DHT22;13057;50.978;11.034;2023-05-02T05:18:30;11.90;99.90
25058;DHT22;13057;50.978;11.034;2023-05-02T05:20:56;12.00;99.90
25058;DHT22;13057;50.978;11.034;2023-05-02T05:23:22;12.00;99.90
25058;DHT22;13057;50.978;11.034;2023-05-02T05:25:48;12.00;99.90
25058;DHT22;13057;50.978;11.034;2023-05-02T05:28:13;12.10;99.90
25058;DHT22;13057;50.978;11.034;2023-05-02T05:30:39;12.20;99.90
25058;DHT22;13057;50.978;11.034;2023-05-02T05:33:05;12.20;99.90
25058;DHT22;13057;50.978;11.034;2023-05-02T05:35:31;12.30;99.90
25058;DHT22;13057;50.978;11.034;2023-05-02T05:37:57;12.30;99.90
25058;DHT22;13057;50.978;11.034;2023-05-02T05:40:23;12.30;99.90
25058;DHT22;13057;50.978;11.034;2023-05-02T05:42:49;12.20;99.90
25058;DHT22;13057;50.978;11.034;2023-05-02T05:45:15;12.20;99.90
25058;DHT22;13057;50.978;11.034;2023-05-02T05:47:43;12.20;99.90
25058;DHT22;13057;50.978;11.034;2023-05-02T05:50:09;12.20;99.90
25058;DHT22;13057;50.978;11.034;2023-05-02T05:52:35;12.20;99.90
25058;DHT22;13057;50.978;11.034;2023-05-02T05:55:02;12.20;99.90
25058;DHT22;13057;50.978;11.034;2023-05-02T05:57:28;12.20;99.90
25058;DHT22;13057;50.978;11.034;2023-05-02T05:59:54;12.20;99.90
25058;DHT22;13057;50.978;11.034;2023-05-02T06:02:20;12.20;99.90
25058;DHT22;13057;50.978;11.034;2023-05-02T06:04:47;12.10;99.90
25058;DHT22;13057;50.978;11.034;2023-05-02T06:07:13;12.10;99.90
25058;DHT22;13057;50.978;11.034;2023-05-02T06:09:38;12.10;99.90
25058;DHT22;13057;50.978;11.034;2023-05-02T06:12:05;12.20;99.90
25058;DHT22;13057;50.978;11.034;2023-05-02T06:14:34;12.20;99.90
25058;DHT22;13057;50.978;11.034;2023-05-02T06:16:59;12.20;99.90
25058;DHT22;13057;50.978;11.034;2023-05-02T06:19:25;12.20;99.90
25058;DHT22;13057;50.978;11.034;2023-05-02T06:21:51;12.20;99.90
25058;DHT22;13057;50.978;11.034;2023-05-02T06:24:17;12.30;99.90
25058;DHT22;13057;50.978;11.034;2023-05-02T06:26:43;12.30;99.90
25058;DHT22;13057;50.978;11.034;2023-05-02T06:29:09;12.40;99.90
25058;DHT22;13057;50.978;11.034;2023-05-02T06:31:35;12.40;99.90
25058;DHT22;13057;50.978;11.034;2023-05-02T06:34:00;12.30;99.90
25058;DHT22;13057;50.978;11.034;2023-05-02T06:36:26;12.40;99.90
25058;DHT22;13057;50.978;11.034;2023-05-02T06:38:52;12.30;99.90
25058;DHT22;13057;50.978;11.034;2023-05-02T06:41:18;12.40;99.90
25058;DHT22;13057;50.978;11.034;2023-05-02T06:43:45;12.40;99.90
25058;DHT22;13057;50.978;11.034;2023-05-02T06:46:11;12.40;99.90
25058;DHT22;13057;50.978;11.034;2023-05-02T06:48:37;12.30;99.90
25058;DHT22;13057;50.978;11.034;2023-05-02T06:51:03;12.30;99.90
25058;DHT22;13057;50.978;11.034;2023-05-02T06:53:30;12.40;99.90
25058;DHT22;13057;50.978;11.034;2023-05-02T06:55:56;12.30;99.90
25058;DHT22;13057;50.978;11.034;2023-05-02T06:58:22;12.40;99.90
25058;DHT22;13057;50.978;11.034;2023-05-02T07:00:48;12.40;99.90
25058;DHT22;13057;50.978;11.034;2023-05-02T07:03:15;12.50;99.90
25058;DHT22;13057;50.978;11.034;2023-05-02T07:05:41;12.50;99.90
25058;DHT22;13057;50.978;11.034;2023-05-02T07:08:07;12.70;99.90
25058;DHT22;13057;50.978;11.034;2023-05-02T07:10:33;12.80;99.90
25058;DHT22;13057;50.978;11.034;2023-05-02T07:12:59;12.90;99.90
25058;DHT22;13057;50.978;11.034;2023-05-02T07:15:26;12.90;99.90
25058;DHT22;13057;50.978;11.034;2023-05-02T07:17:51;13.00;99.90
25058;DHT22;13057;50.978;11.034;2023-05-02T07:20:21;13.00;99.90
25058;DHT22;13057;50.978;11.034;2023-05-02T07:22:47;13.00;99.90
25058;DHT22;13057;50.978;11.034;2023-05-02T07:25:13;13.10;99.90
25058;DHT22;13057;50.978;11.034;2023-05-02T07:27:39;13.20;99.90
25058;DHT22;13057;50.978;11.034;2023-05-02T07:30:05;13.30;99.90
25058;DHT22;13057;50.978;11.034;2023-05-02T07:32:31;13.30;99.90
25058;DHT22;13057;50.978;11.034;2023-05-02T07:34:57;13.30;99.90
25058;DHT22;13057;50.978;11.034;2023-05-02T07:37:23;13.40;99.90
25058;DHT22;13057;50.978;11.034;2023-05-02T07:39:49;13.30;99.90
25058;DHT22;13057;50.978;11.034;2023-05-02T07:42:15;13.30;99.90
25058;DHT22;13057;50.978;11.034;2023-05-02T07:44:41;13.30;99.90
25058;DHT22;13057;50.978;11.034;2023-05-02T07:47:07;13.40;99.90
25058;DHT22;13057;50.978;11.034;2023-05-02T07:49:33;13.40;99.90
25058;DHT22;13057;50.978;11.034;2023-05-02T07:51:59;13.40;99.90
25058;DHT22;13057;50.978;11.034;2023-05-02T07:54:25;13.50;99.90
25058;DHT22;13057;50.978;11.034;2023-05-02T07:56:52;13.50;99.90
25058;DHT22;13057;50.978;11.034;2023-05-02T07:59:18;13.60;99.90
25058;DHT22;13057;50.978;11.034;2023-05-02T08:01:44;13.60;99.90
25058;DHT22;13057;50.978;11.034;2023-05-02T08:04:10;13.60;99.90
25058;DHT22;13057;50.978;11.034;2023-05-02T08:06:39;13.70;99.90
25058;DHT22;13057;50.978;11.034;2023-05-02T08:09:05;13.70;99.90
25058;DHT22;13057;50.978;11.034;2023-05-02T08:11:31;13.70;99.90
25058;DHT22;13057;50.978;11.034;2023-05-02T08:13:56;13.70;99.90
25058;DHT22;13057;50.978;11.034;2023-05-02T08:16:26;13.80;99.90
25058;DHT22;13057;50.978;11.034;2023-05-02T08:18:52;13.80;99.90
25058;DHT22;13057;50.978;11.034;2023-05-02T08:21:18;13.90;99.90
25058;DHT22;13057;50.978;11.034;2023-05-02T08:23:44;13.90;99.90
25058;DHT22;13057;50.978;11.034;2023-05-02T08:26:11;13.90;99.90
25058;DHT22;13057;50.978;11.034;2023-05-02T08:28:37;14.00;99.90
25058;DHT22;13057;50.978;11.034;2023-05-02T08:31:03;14.00;99.90
25058;DHT22;13057;50.978;11.034;2023-05-02T08:33:29;14.00;99.90
25058;DHT22;13057;50.978;11.034;2023-05-02T08:35:55;14.00;99.90
25058;DHT22;13057;50.978;11.034;2023-05-02T08:38:20;14.00;99.90
25058;DHT22;13057;50.978;11.034;2023-05-02T08:40:47;14.10;99.90
25058;DHT22;13057;50.978;11.034;2023-05-02T08:43:15;14.10;99.90
25058;DHT22;13057;50.978;11.034;2023-05-02T08:45:44;14.10;99.90
25058;DHT22;13057;50.978;11.034;2023-05-02T08:48:13;14.20;99.90
25058;DHT22;13057;50.978;11.034;2023-05-02T08:50:42;14.30;99.90
25058;DHT22;13057;50.978;11.034;2023-05-02T08:53:11;14.30;99.90
25058;DHT22;13057;50.978;11.034;2023-05-02T08:55:40;14.30;99.90
25058;DHT22;13057;50.978;11.034;2023-05-02T08:58:07;14.40;99.90
25058;DHT22;13057;50.978;11.034;2023-05-02T09:00:38;14.50;99.90
25058;DHT22;13057;50.978;11.034;2023-05-02T09:03:20;14.50;99.90
25058;DHT22;13057;50.978;11.034;2023-05-02T09:05:52;14.50;99.90
25058;DHT22;13057;50.978;11.034;2023-05-02T09:08:21;14.50;99.90
25058;DHT22;13057;50.978;11.034;2023-05-02T09:10:48;14.50;99.90
25058;DHT22;13057;50.978;11.034;2023-05-02T09:13:31;14.40;99.90
25058;DHT22;13057;50.978;11.034;2023-05-02T09:16:00;14.50;99.90
25058;DHT22;13057;50.978;11.034;2023-05-02T09:18:28;14.50;99.90
25058;DHT22;13057;50.978;11.034;2023-05-02T09:20:56;14.50;99.90
25058;DHT22;13057;50.978;11.034;2023-05-02T09:23:32;14.60;99.90
25058;DHT22;13057;50.978;11.034;2023-05-02T09:26:00;14.60;99.90
25058;DHT22;13057;50.978;11.034;2023-05-02T09:28:40;14.60;99.90
25058;DHT22;13057;50.978;11.034;2023-05-02T09:31:08;14.60;99.90
25058;DHT22;13057;50.978;11.034;2023-05-02T09:33:34;14.60;99.90
25058;DHT22;13057;50.978;11.034;2023-05-02T09:36:00;14.70;99.90
25058;DHT22;13057;50.978;11.034;2023-05-02T09:38:27;14.80;99.90
25058;DHT22;13057;50.978;11.034;2023-05-02T09:40:53;14.80;99.90
25058;DHT22;13057;50.978;11.034;2023-05-02T09:43:21;14.80;99.90
25058;DHT22;13057;50.978;11.034;2023-05-02T09:45:59;14.80;99.90
25058;DHT22;13057;50.978;11.034;2023-05-02T09:48:28;14.80;99.90
25058;DHT22;13057;50.978;11.034;2023-05-02T09:50:55;14.90;99.90
25058;DHT22;13057;50.978;11.034;2023-05-02T09:53:23;15.00;99.90
25058;DHT22;13057;50.978;11.034;2023-05-02T09:55:59;15.20;99.90
25058;DHT22;13057;50.978;11.034;2023-05-02T09:58:25;15.40;99.90
25058;DHT22;13057;50.978;11.034;2023-05-02T10:00:51;15.70;99.90
25058;DHT22;13057;50.978;11.034;2023-05-02T10:03:18;15.80;99.90
25058;DHT22;13057;50.978;11.034;2023-05-02T10:05:45;15.90;99.90
25058;DHT22;13057;50.978;11.034;2023-05-02T10:08:12;15.90;99.90
25058;DHT22;13057;50.978;11.034;2023-05-02T10:10:40;15.90;99.90
25058;DHT22;13057;50.978;11.034;2023-05-02T10:13:07;16.10;99.90
25058;DHT22;13057;50.978;11.034;2023-05-02T10:15:37;16.10;99.80
25058;DHT22;13057;50.978;11.034;2023-05-02T10:18:12;16.10;99.90
25058;DHT22;13057;50.978;11.034;2023-05-02T10:20:43;16.10;99.90
25058;DHT22;13057;50.978;11.034;2023-05-02T10:23:15;16.10;99.90
25058;DHT22;13057;50.978;11.034;2023-05-02T10:25:41;16.10;99.90
25058;DHT22;13057;50.978;11.034;2023-05-02T10:28:09;16.10;99.90
25058;DHT22;13057;50.978;11.034;2023-05-02T10:30:35;16.00;99.90
25058;DHT22;13057;50.978;11.034;2023-05-02T10:33:04;15.90;99.90
25058;DHT22;13057;50.978;11.034;2023-05-02T10:35:31;15.90;99.20
25058;DHT22;13057;50.978;11.034;2023-05-02T10:37:58;15.90;99.80
25058;DHT22;13057;50.978;11.034;2023-05-02T10:40:25;15.90;98.90
25058;DHT22;13057;50.978;11.034;2023-05-02T10:42:52;16.00;97.70
25058;DHT22;13057;50.978;11.034;2023-05-02T10:45:31;15.90;97.30
25058;DHT22;13057;50.978;11.034;2023-05-02T10:48:14;15.90;97.10
25058;DHT22;13057;50.978;11.034;2023-05-02T10:50:48;15.80;96.90
25058;DHT22;13057;50.978;11.034;2023-05-02T10:53:24;15.80;96.80
25058;DHT22;13057;50.978;11.034;2023-05-02T10:56:08;15.80;97.10
25058;DHT22;13057;50.978;11.034;2023-05-02T10:58:35;15.80;97.30
25058;DHT22;13057;50.978;11.034;2023-05-02T11:01:32;15.80;97.50
25058;DHT22;13057;50.978;11.034;2023-05-02T11:04:02;15.90;97.70
25058;DHT22;13057;50.978;11.034;2023-05-02T11:06:32;15.90;97.90
25058;DHT22;13057;50.978;11.034;2023-05-02T11:11:58;15.80;99.90
25058;DHT22;13057;50.978;11.034;2023-05-02T11:14:44;15.60;99.90
25058;DHT22;13057;50.978;11.034;2023-05-02T11:17:11;15.50;99.90
25058;DHT22;13057;50.978;11.034;2023-05-02T11:22:45;15.30;99.90
25058;DHT22;13057;50.978;11.034;2023-05-02T11:25:30;15.20;99.90
25058;DHT22;13057;50.978;11.034;2023-05-02T11:27:56;15.10;99.90
25058;DHT22;13057;50.978;11.034;2023-05-02T11:30:37;15.00;99.90
25058;DHT22;13057;50.978;11.034;2023-05-02T11:33:11;14.80;99.90
25058;DHT22;13057;50.978;11.034;2023-05-02T11:35:41;14.80;99.90
25058;DHT22;13057;50.978;11.034;2023-05-02T11:38:10;14.90;99.90
25058;DHT22;13057;50.978;11.034;2023-05-02T11:40:36;14.90;99.90
25058;DHT22;13057;50.978;11.034;2023-05-02T11:43:14;14.90;99.90
25058;DHT22;13057;50.978;11.034;2023-05-02T11:45:40;14.90;99.90
25058;DHT22;13057;50.978;11.034;2023-05-02T11:48:08;14.90;99.90
25058;DHT22;13057;50.978;11.034;2023-05-02T11:50:41;14.80;99.90
25058;DHT22;13057;50.978;11.034;2023-05-02T11:53:11;14.80;99.90
25058;DHT22;13057;50.978;11.034;2023-05-02T11:55:44;14.70;99.90
25058;DHT22;13057;50.978;11.034;2023-05-02T11:58:12;14.70;99.90
25058;DHT22;13057;50.978;11.034;2023-05-02T12:00:39;14.60;99.90
25058;DHT22;13057;50.978;11.034;2023-05-02T12:03:05;14.60;99.90
25058;DHT22;13057;50.978;11.034;2023-05-02T12:05:31;14.60;99.90
25058;DHT22;13057;50.978;11.034;2023-05-02T12:07:57;14.60;99.90
25058;DHT22;13057;50.978;11.034;2023-05-02T12:10:35;14.60;99.90
25058;DHT22;13057;50.978;11.034;2023-05-02T12:13:04;14.60;99.90
25058;DHT22;13057;50.978;11.034;2023-05-02T12:15:31;14.60;99.90
25058;DHT22;13057;50.978;11.034;2023-05-02T12:17:57;14.50;99.90
25058;DHT22;13057;50.978;11.034;2023-05-02T12:20:23;14.40;99.90
25058;DHT22;13057;50.978;11.034;2023-05-02T12:22:49;14.50;99.90
25058;DHT22;13057;50.978;11.034;2023-05-02T12:25:16;14.60;99.90
25058;DHT22;13057;50.978;11.034;2023-05-02T12:27:58;14.60;99.90
25058;DHT22;13057;50.978;11.034;2023-05-02T12:30:26;14.60;99.90
25058;DHT22;13057;50.978;11.034;2023-05-02T12:32:55;14.70;99.90
25058;DHT22;13057;50.978;11.034;2023-05-02T12:35:23;14.70;99.90
25058;DHT22;13057;50.978;11.034;2023-05-02T12:37:49;14.60;99.90
25058;DHT22;13057;50.978;11.034;2023-05-02T12:40:16;14.70;99.90
25058;DHT22;13057;50.978;11.034;2023-05-02T12:42:58;14.70;99.90
25058;DHT22;13057;50.978;11.034;2023-05-02T12:45:25;14.60;99.90
25058;DHT22;13057;50.978;11.034;2023-05-02T12:47:53;14.60;99.90
25058;DHT22;13057;50.978;11.034;2023-05-02T12:50:20;14.60;99.90
25058;DHT22;13057;50.978;11.034;2023-05-02T12:52:59;14.50;99.90
25058;DHT22;13057;50.978;11.034;2023-05-02T12:55:25;14.40;99.90
25058;DHT22;13057;50.978;11.034;2023-05-02T12:58:00;14.30;99.90
25058;DHT22;13057;50.978;11.034;2023-05-02T13:00:26;14.20;99.90
25058;DHT22;13057;50.978;11.034;2023-05-02T13:02:52;14.30;99.90
25058;DHT22;13057;50.978;11.034;2023-05-02T13:05:19;14.40;99.90
25058;DHT22;13057;50.978;11.034;2023-05-02T13:07:45;14.40;99.90
25058;DHT22;13057;50.978;11.034;2023-05-02T13:10:11;14.40;99.90
25058;DHT22;13057;50.978;11.034;2023-05-02T13:12:38;14.40;99.90
25058;DHT22;13057;50.978;11.034;2023-05-02T13:15:05;14.40;99.90
25058;DHT22;13057;50.978;11.034;2023-05-02T13:17:32;14.40;99.90
25058;DHT22;13057;50.978;11.034;2023-05-02T13:19:58;14.40;99.90
25058;DHT22;13057;50.978;11.034;2023-05-02T13:22:25;14.50;99.90
25058;DHT22;13057;50.978;11.034;2023-05-02T13:24:51;14.40;99.90
25058;DHT22;13057;50.978;11.034;2023-05-02T13:27:17;14.40;99.90
25058;DHT22;13057;50.978;11.034;2023-05-02T13:29:44;14.30;99.90
25058;DHT22;13057;50.978;11.034;2023-05-02T13:32:10;14.20;99.90
25058;DHT22;13057;50.978;11.034;2023-05-02T13:34:36;14.20;99.90
25058;DHT22;13057;50.978;11.034;2023-05-02T13:37:02;14.20;99.90
25058;DHT22;13057;50.978;11.034;2023-05-02T13:39:28;14.20;99.90
25058;DHT22;13057;50.978;11.034;2023-05-02T13:41:54;14.20;99.90
25058;DHT22;13057;50.978;11.034;2023-05-02T13:44:20;14.10;99.90
25058;DHT22;13057;50.978;11.034;2023-05-02T13:46:47;14.10;99.90
25058;DHT22;13057;50.978;11.034;2023-05-02T13:49:13;14.20;99.90
25058;DHT22;13057;50.978;11.034;2023-05-02T13:51:39;14.20;99.90
25058;DHT22;13057;50.978;11.034;2023-05-02T13:54:05;14.30;99.90
25058;DHT22;13057;50.978;11.034;2023-05-02T13:56:31;14.40;99.90
25058;DHT22;13057;50.978;11.034;2023-05-02T13:58:57;14.40;99.90
25058;DHT22;13057;50.978;11.034;2023-05-02T14:01:22;14.40;99.90
25058;DHT22;13057;50.978;11.034;2023-05-02T14:03:51;14.50;99.90
25058;DHT22;13057;50.978;11.034;2023-05-02T14:06:17;14.50;99.90
25058;DHT22;13057;50.978;11.034;2023-05-02T14:08:43;14.60;99.90
25058;DHT22;13057;50.978;11.034;2023-05-02T14:11:09;14.50;99.90
25058;DHT22;13057;50.978;11.034;2023-05-02T14:13:42;14.40;99.80
25058;DHT22;13057;50.978;11.034;2023-05-02T14:22:45;14.60;99.60
25058;DHT22;13057;50.978;11.034;2023-05-02T14:25:33;14.60;99.90
25058;DHT22;13057;50.978;11.034;2023-05-02T14:38:14;14.50;98.90
25058;DHT22;13057;50.978;11.034;2023-05-02T14:44:08;14.50;99.00
25058;DHT22;13057;50.978;11.034;2023-05-02T14:47:07;14.50;99.20
25058;DHT22;13057;50.978;11.034;2023-05-02T14:49:33;14.60;99.80
25058;DHT22;13057;50.978;11.034;2023-05-02T14:52:24;14.60;98.90
25058;DHT22;13057;50.978;11.034;2023-05-02T14:55:15;14.50;98.80
25058;DHT22;13057;50.978;11.034;2023-05-02T15:01:18;14.40;98.80
25058;DHT22;13057;50.978;11.034;2023-05-02T15:04:09;14.40;99.00
25058;DHT22;13057;50.978;11.034;2023-05-02T15:20:25;14.40;99.70
25058;DHT22;13057;50.978;11.034;2023-05-02T15:22:57;14.40;98.90
25058;DHT22;13057;50.978;11.034;2023-05-02T15:31:58;14.00;99.00
25058;DHT22;13057;50.978;11.034;2023-05-02T15:34:24;13.80;99.30
25058;DHT22;13057;50.978;11.034;2023-05-02T15:36:50;13.70;99.10
25058;DHT22;13057;50.978;11.034;2023-05-02T15:39:18;13.50;99.10
25058;DHT22;13057;50.978;11.034;2023-05-02T15:41:44;13.50;99.20
25058;DHT22;13057;50.978;11.034;2023-05-02T15:44:12;13.50;99.30
25058;DHT22;13057;50.978;11.034;2023-05-02T15:46:38;13.50;99.10
25058;DHT22;13057;50.978;11.034;2023-05-02T15:49:06;13.60;99.30
25058;DHT22;13057;50.978;11.034;2023-05-02T15:51:32;13.60;99.30
25058;DHT22;13057;50.978;11.034;2023-05-02T15:54:01;13.50;98.40
25058;DHT22;13057;50.978;11.034;2023-05-02T15:56:27;13.40;98.60
25058;DHT22;13057;50.978;11.034;2023-05-02T15:58:53;13.40;98.60
25058;DHT22;13057;50.978;11.034;2023-05-02T16:01:19;13.40;98.80
25058;DHT22;13057;50.978;11.034;2023-05-02T16:03:45;13.30;98.50
25058;DHT22;13057;50.978;11.034;2023-05-02T16:06:11;13.30;98.70
25058;DHT22;13057;50.978;11.034;2023-05-02T16:08:37;13.30;99.20
25058;DHT22;13057;50.978;11.034;2023-05-02T16:11:03;13.40;98.90
25058;DHT22;13057;50.978;11.034;2023-05-02T16:13:29;13.30;98.80
25058;DHT22;13057;50.978;11.034;2023-05-02T16:15:55;13.30;98.90
25058;DHT22;13057;50.978;11.034;2023-05-02T16:18:24;13.20;99.00